createdAt,value
2019-01-27T00:01:57.478Z,6.46
2019-01-27T00:06:01.646Z,6.50
2019-01-27T00:10:06.660Z,6.54
2019-01-27T00:14:11.091Z,6.58
2019-01-27T00:18:15.271Z,6.63
2019-01-27T00:22:19.444Z,6.69
2019-01-27T00:26:23.645Z,6.73
2019-01-27T00:30:28.041Z,6.76
2019-01-27T00:34:32.511Z,6.78
2019-01-27T00:38:36.681Z,6.78
2019-01-27T00:42:40.859Z,6.78
2019-01-27T00:46:44.992Z,6.82
2019-01-27T00:50:49.209Z,6.81
2019-01-27T00:54:53.716Z,6.81
2019-01-27T00:58:57.878Z,6.77
2019-01-27T01:03:02.003Z,6.75
2019-01-27T01:07:06.178Z,6.71
2019-01-27T01:11:10.345Z,6.70
2019-01-27T01:15:16.774Z,6.70
2019-01-27T01:19:20.933Z,6.67
2019-01-27T01:23:25.168Z,6.62
2019-01-27T01:27:29.561Z,6.63
2019-01-27T01:31:33.744Z,6.58
2019-01-27T01:35:37.912Z,6.53
2019-01-27T01:39:42.069Z,6.47
2019-01-27T01:43:46.242Z,6.46
2019-01-27T01:47:50.420Z,6.41
2019-01-27T01:51:54.597Z,6.35
2019-01-27T01:55:58.771Z,6.32
2019-01-27T02:00:03.411Z,6.30
2019-01-27T02:04:07.586Z,6.26
2019-01-27T02:08:11.762Z,6.22
2019-01-27T02:12:15.885Z,6.21
2019-01-27T02:16:20.208Z,6.20
2019-01-27T02:20:24.360Z,6.17
2019-01-27T02:24:28.543Z,6.14
2019-01-27T02:28:32.682Z,6.09
2019-01-27T02:32:36.883Z,6.00
2019-01-27T02:36:41.109Z,5.89
2019-01-27T02:40:45.283Z,5.80
2019-01-27T02:44:49.469Z,5.75
2019-01-27T02:48:53.646Z,5.68
2019-01-27T02:52:57.792Z,5.54
2019-01-27T02:57:02.189Z,5.39
2019-01-27T03:01:06.555Z,5.28
2019-01-27T03:05:45.054Z,5.16
2019-01-27T03:09:49.270Z,5.02
2019-01-27T03:13:53.646Z,4.90
2019-01-27T03:17:57.770Z,4.82
2019-01-27T03:22:02.384Z,4.70
2019-01-27T03:26:06.832Z,4.59
2019-01-27T03:30:15.663Z,4.49
2019-01-27T03:34:20.037Z,4.40
2019-01-27T03:38:24.239Z,4.30
2019-01-27T03:42:28.430Z,4.25
2019-01-27T03:46:32.562Z,4.19
2019-01-27T03:50:36.742Z,4.12
2019-01-27T03:54:41.188Z,4.09
2019-01-27T03:58:45.363Z,4.14
2019-01-27T04:02:49.659Z,4.14
2019-01-27T04:06:53.854Z,4.15
2019-01-27T04:10:58.016Z,4.20
2019-01-27T04:15:02.202Z,4.16
2019-01-27T04:19:06.340Z,4.10
2019-01-27T04:23:10.529Z,4.07
2019-01-27T04:27:14.939Z,4.05
2019-01-27T04:31:19.433Z,4.05
2019-01-27T04:35:23.596Z,4.06
2019-01-27T04:39:27.774Z,4.09
2019-01-27T04:43:31.943Z,4.12
2019-01-27T04:47:36.078Z,4.10
2019-01-27T04:51:40.247Z,4.06
2019-01-27T04:55:44.403Z,4.01
2019-01-27T04:59:48.540Z,4.00
2019-01-27T05:04:04.314Z,3.99
2019-01-27T05:08:08.750Z,3.82
2019-01-27T05:12:12.924Z,3.74
2019-01-27T05:16:17.296Z,3.73
2019-01-27T05:20:21.477Z,3.67
2019-01-27T05:24:25.688Z,3.53
2019-01-27T05:28:30.120Z,3.49
2019-01-27T05:32:34.300Z,3.41
2019-01-27T05:36:38.752Z,3.32
2019-01-27T05:40:42.930Z,3.22
2019-01-27T05:44:47.433Z,3.05
2019-01-27T05:48:51.585Z,2.94
2019-01-27T05:52:55.765Z,2.87
2019-01-27T05:56:59.962Z,2.83
2019-01-27T06:01:04.082Z,2.75
2019-01-27T06:05:08.405Z,2.61
2019-01-27T06:09:12.587Z,2.48
2019-01-27T06:13:16.735Z,2.34
2019-01-27T06:17:20.916Z,2.12
2019-01-27T06:21:25.066Z,1.95
2019-01-27T06:25:29.274Z,1.74
2019-01-27T06:29:33.733Z,1.56
2019-01-27T06:34:06.059Z,1.50
2019-01-27T06:38:10.298Z,1.46
2019-01-27T06:42:14.462Z,1.42
2019-01-27T06:46:18.743Z,1.40
2019-01-27T06:50:22.989Z,1.37
2019-01-27T06:54:27.183Z,1.27
2019-01-27T06:58:50.385Z,1.24
2019-01-27T07:03:00.967Z,1.23
2019-01-27T07:07:18.150Z,1.24
2019-01-27T07:11:37.511Z,1.25
2019-01-27T07:16:01.490Z,1.26
2019-01-27T07:20:25.146Z,1.26
2019-01-27T07:25:00.168Z,1.28
2019-01-27T07:29:22.935Z,1.34
2019-01-27T07:33:43.767Z,1.40
2019-01-27T07:37:59.786Z,1.40
2019-01-27T07:42:25.222Z,1.29
2019-01-27T07:46:36.189Z,1.20
2019-01-27T07:50:47.805Z,1.17
2019-01-27T07:55:05.578Z,1.15
2019-01-27T07:59:29.363Z,1.20
2019-01-27T08:03:52.508Z,1.05
2019-01-27T08:08:08.737Z,0.93
2019-01-27T08:12:27.028Z,0.86
2019-01-27T08:16:48.843Z,0.80
2019-01-27T08:21:27.174Z,0.77
2019-01-27T08:25:56.488Z,0.82
2019-01-27T08:30:06.781Z,0.83
2019-01-27T08:34:27.437Z,0.74
2019-01-27T08:38:44.224Z,0.66
2019-01-27T08:42:57.658Z,0.58
2019-01-27T08:47:03.171Z,0.55
2019-01-27T08:51:07.358Z,0.55
2019-01-27T08:55:12.913Z,0.61
2019-01-27T08:59:17.383Z,0.65
2019-01-27T09:03:30.742Z,0.70
2019-01-27T09:08:08.833Z,0.86
2019-01-27T09:12:25.544Z,0.92
2019-01-27T09:16:50.841Z,0.94
2019-01-27T09:21:16.452Z,1.00
2019-01-27T09:25:58.257Z,1.06
2019-01-27T09:30:16.689Z,1.09
2019-01-27T09:34:48.499Z,1.13
2019-01-27T09:39:00.417Z,1.18
2019-01-27T09:43:24.359Z,1.23
2019-01-27T09:47:47.122Z,1.21
2019-01-27T09:52:17.933Z,1.17
2019-01-27T10:00:48.401Z,1.12
2019-01-27T10:04:57.811Z,1.12
2019-01-27T10:09:39.243Z,1.19
2019-01-27T10:14:11.516Z,1.26
2019-01-27T10:18:27.073Z,1.28
2019-01-27T10:22:59.301Z,1.49
2019-01-27T10:27:15.292Z,1.64
2019-01-27T10:31:41.425Z,1.60
2019-01-27T10:36:09.531Z,1.62
2019-01-27T10:40:31.468Z,1.67
2019-01-27T10:44:43.782Z,1.69
2019-01-27T10:49:25.591Z,1.65
2019-01-27T10:53:45.185Z,1.61
2019-01-27T10:58:03.587Z,1.47
2019-01-27T11:02:38.888Z,1.41
2019-01-27T11:07:11.257Z,1.41
2019-01-27T11:11:33.237Z,1.50
2019-01-27T11:15:48.434Z,1.43
2019-01-27T11:20:11.681Z,1.35
2019-01-27T11:24:25.630Z,1.25
2019-01-27T11:28:44.533Z,1.24
2019-01-27T11:32:59.952Z,1.26
2019-01-27T11:37:27.830Z,1.27
2019-01-27T11:41:54.093Z,1.32
2019-01-27T11:46:19.336Z,1.32
2019-01-27T11:50:27.560Z,1.31
2019-01-27T11:54:31.947Z,1.38
2019-01-27T11:58:36.246Z,1.47
2019-01-27T12:02:46.581Z,1.46
2019-01-27T12:06:46.573Z,1.47
2019-01-27T12:10:50.841Z,1.48
2019-01-27T12:14:55.091Z,1.54
2019-01-27T12:18:59.546Z,1.52
2019-01-27T12:23:03.752Z,1.52
2019-01-27T12:27:08.105Z,1.53
2019-01-27T12:31:12.606Z,1.57
2019-01-27T12:35:17.273Z,1.71
2019-01-27T12:39:21.605Z,1.75
2019-01-27T12:43:26.148Z,1.80
2019-01-27T12:47:30.460Z,1.77
2019-01-27T12:51:34.667Z,1.82
2019-01-27T12:55:38.926Z,1.83
2019-01-27T12:59:43.197Z,1.76
2019-01-27T13:03:47.404Z,1.83
2019-01-27T13:07:51.726Z,1.95
2019-01-27T13:11:57.809Z,1.97
2019-01-27T13:16:02.111Z,1.91
2019-01-27T13:20:07.061Z,1.93
2019-01-27T13:24:11.544Z,1.95
2019-01-27T13:28:15.803Z,2.05
2019-01-27T13:32:20.083Z,2.13
2019-01-27T13:36:24.718Z,2.16
2019-01-27T13:40:29.082Z,2.17
2019-01-27T13:44:33.386Z,2.19
2019-01-27T13:48:37.689Z,2.26
2019-01-27T13:52:41.937Z,2.26
2019-01-27T13:56:46.227Z,2.31
2019-01-27T14:00:50.660Z,2.30
2019-01-27T14:04:54.931Z,2.29
2019-01-27T14:08:59.215Z,2.35
2019-01-27T14:13:04.011Z,2.40
2019-01-27T14:17:08.455Z,2.45
2019-01-27T14:21:16.658Z,2.52
2019-01-27T14:25:20.148Z,2.72
2019-01-27T14:29:24.461Z,2.76
2019-01-27T14:33:28.767Z,2.83
2019-01-27T14:37:33.197Z,3.09
2019-01-27T14:41:37.466Z,3.09
2019-01-27T14:45:41.691Z,3.03
2019-01-27T14:49:46.214Z,3.07
2019-01-27T14:53:50.513Z,2.98
2019-01-27T14:57:54.827Z,2.94
2019-01-27T15:01:59.127Z,2.87
2019-01-27T15:06:03.567Z,2.79
2019-01-27T15:10:09.522Z,2.74
2019-01-27T15:14:13.898Z,2.74
2019-01-27T15:18:19.737Z,2.73
2019-01-27T15:22:24.188Z,2.69
2019-01-27T15:26:28.522Z,2.66
2019-01-27T15:30:33.376Z,2.60
2019-01-27T15:34:37.653Z,2.59
2019-01-27T15:38:42.026Z,2.61
2019-01-27T15:42:46.373Z,2.52
2019-01-27T15:46:50.780Z,2.45
2019-01-27T15:50:55.044Z,2.34
2019-01-27T15:54:59.313Z,2.32
2019-01-27T15:59:03.596Z,2.30
2019-01-27T16:03:07.841Z,2.29
2019-01-27T16:07:12.108Z,2.33
2019-01-27T16:11:16.406Z,2.37
2019-01-27T16:15:23.148Z,2.40
2019-01-27T16:19:27.504Z,2.44
2019-01-27T16:23:52.651Z,2.43
2019-01-27T16:27:57.183Z,2.43
2019-01-27T16:32:08.899Z,2.40
2019-01-27T16:36:13.243Z,2.42
2019-01-27T16:40:17.470Z,2.38
2019-01-27T16:44:21.831Z,2.37
2019-01-27T16:48:26.157Z,2.35
2019-01-27T16:52:30.404Z,2.36
2019-01-27T16:56:34.687Z,2.34
2019-01-27T17:00:39.039Z,2.32
2019-01-27T17:04:43.856Z,2.25
2019-01-27T17:08:48.157Z,2.20
2019-01-27T17:12:52.556Z,2.19
2019-01-27T17:16:56.835Z,2.19
2019-01-27T17:21:01.068Z,2.21
2019-01-27T17:25:06.471Z,2.19
2019-01-27T17:29:10.829Z,2.18
2019-01-27T17:33:15.219Z,2.21
2019-01-27T17:37:19.513Z,2.19
2019-01-27T17:41:23.835Z,2.14
2019-01-27T17:45:28.320Z,2.14
2019-01-27T17:49:32.603Z,2.10
2019-01-27T17:53:46.403Z,2.06
2019-01-27T17:57:58.225Z,2.06
2019-01-27T18:02:39.419Z,2.10
2019-01-27T18:06:54.876Z,2.17
2019-01-27T18:11:36.538Z,2.21
2019-01-27T18:15:40.882Z,2.16
2019-01-27T18:19:45.149Z,2.19
2019-01-27T18:23:49.886Z,2.21
2019-01-27T18:27:54.313Z,2.23
2019-01-27T18:31:58.577Z,2.26
2019-01-27T18:36:02.886Z,2.27
2019-01-27T18:40:08.559Z,2.24
2019-01-27T18:44:12.938Z,2.24
2019-01-27T18:48:17.332Z,2.21
2019-01-27T18:52:21.602Z,2.21
2019-01-27T18:56:44.825Z,2.24
2019-01-27T19:01:11.054Z,2.20
2019-01-27T19:05:28.389Z,2.16
2019-01-27T19:09:42.099Z,2.10
2019-01-27T19:14:04.090Z,2.12
2019-01-27T19:18:27.178Z,2.17
2019-01-27T19:22:42.172Z,2.23
2019-01-27T19:26:57.887Z,2.26
2019-01-27T19:31:21.163Z,2.30
2019-01-27T19:35:36.259Z,2.32
2019-01-27T19:39:58.122Z,2.30
2019-01-27T19:44:17.948Z,2.30
2019-01-27T19:48:44.472Z,2.31
2019-01-27T19:52:59.307Z,2.25
2019-01-27T19:57:09.230Z,2.19
2019-01-27T20:01:30.212Z,2.19
2019-01-27T20:05:59.215Z,2.20
2019-01-27T20:10:15.181Z,2.23
2019-01-27T20:14:36.871Z,2.21
2019-01-27T20:18:54.231Z,2.22
2019-01-27T20:23:15.972Z,2.16
2019-01-27T20:27:39.146Z,2.13
2019-01-27T20:32:02.518Z,2.17
2019-01-27T20:36:24.542Z,2.21
2019-01-27T20:40:56.768Z,2.23
2019-01-27T20:45:22.905Z,2.25
2019-01-27T20:49:40.803Z,2.25
2019-01-27T20:54:04.165Z,2.25
2019-01-27T20:58:36.493Z,2.20
2019-01-27T21:03:12.073Z,2.11
2019-01-27T21:07:27.587Z,1.98
2019-01-27T21:12:02.916Z,1.92
2019-01-27T21:16:32.136Z,1.97
2019-01-27T21:20:36.389Z,1.99
2019-01-27T21:24:40.640Z,2.00
2019-01-27T21:28:44.903Z,2.01
2019-01-27T21:32:49.579Z,1.99
2019-01-27T21:41:38.787Z,2.00
2019-01-27T21:45:43.196Z,1.92
2019-01-27T21:49:50.701Z,1.91
2019-01-27T21:53:55.001Z,1.87
2019-01-27T21:57:59.277Z,1.84
2019-01-27T22:02:03.626Z,1.83
2019-01-27T22:06:07.992Z,1.86
2019-01-27T22:10:13.256Z,1.87
2019-01-27T22:14:18.531Z,1.86
2019-01-27T22:18:24.147Z,1.87
2019-01-27T22:22:28.423Z,1.88
2019-01-27T22:26:32.822Z,1.87
2019-01-27T22:30:37.122Z,1.84
2019-01-27T22:34:41.417Z,1.81
2019-01-27T22:38:45.783Z,1.81
2019-01-27T22:42:50.076Z,1.79
2019-01-27T22:46:54.402Z,1.77
2019-01-27T22:50:59.740Z,1.73
2019-01-27T22:55:12.892Z,1.70
2019-01-27T22:59:17.148Z,1.72
2019-01-27T23:03:21.539Z,1.70
2019-01-27T23:07:25.841Z,1.72
2019-01-27T23:11:30.107Z,1.74
2019-01-27T23:15:34.330Z,1.69
2019-01-27T23:19:38.604Z,1.68
2019-01-27T23:23:42.888Z,1.69
2019-01-27T23:27:47.245Z,1.72
2019-01-27T23:31:51.530Z,1.72
2019-01-27T23:35:55.891Z,1.69
2019-01-27T23:40:00.233Z,1.70
2019-01-27T23:44:04.993Z,1.72
2019-01-27T23:48:09.353Z,1.67
2019-01-27T23:52:13.656Z,1.63
2019-01-27T23:56:17.925Z,1.67
